createdAt,value
2022-11-05T00:00:18.604Z,22.00
2022-11-05T00:03:12.161Z,29.75
2022-11-05T00:05:58.107Z,22.05
2022-11-05T00:08:43.572Z,18.80
2022-11-05T00:11:16.843Z,23.08
2022-11-05T00:14:03.483Z,26.23
2022-11-05T00:16:45.327Z,19.58
2022-11-05T00:19:13.398Z,26.75
2022-11-05T00:21:58.449Z,16.63
2022-11-05T00:24:43.926Z,18.92
2022-11-05T00:27:11.175Z,19.55
2022-11-05T00:29:37.820Z,21.65
2022-11-05T00:32:04.737Z,19.67
2022-11-05T00:34:31.396Z,22.63
2022-11-05T00:36:58.022Z,20.58
2022-11-05T00:39:24.856Z,21.88
2022-11-05T00:42:11.463Z,22.27
2022-11-05T00:44:56.546Z,22.47
2022-11-05T00:47:41.976Z,21.30
2022-11-05T00:50:10.531Z,25.23
2022-11-05T00:52:55.847Z,31.02
2022-11-05T00:55:24.087Z,26.98
2022-11-05T00:57:50.965Z,23.23
2022-11-05T01:00:17.923Z,22.50
2022-11-05T01:02:44.689Z,24.95
2022-11-05T01:05:11.738Z,28.00
2022-11-05T01:07:38.445Z,24.15
2022-11-05T01:10:05.737Z,25.20
2022-11-05T01:12:32.608Z,24.23
2022-11-05T01:14:59.250Z,26.70
2022-11-05T01:17:25.900Z,29.67
2022-11-05T01:19:52.510Z,28.25
2022-11-05T01:22:19.155Z,27.45
2022-11-05T01:24:45.975Z,29.05
2022-11-05T01:27:12.655Z,30.05
2022-11-05T01:29:39.293Z,32.83
2022-11-05T01:32:05.923Z,29.30
2022-11-05T01:34:32.532Z,33.60
2022-11-05T01:36:59.174Z,37.00
2022-11-05T01:39:25.804Z,37.83
2022-11-05T01:41:52.421Z,33.53
2022-11-05T01:44:58.159Z,40.38
2022-11-05T01:47:34.033Z,40.47
2022-11-05T01:50:06.765Z,41.90
2022-11-05T01:52:35.715Z,41.63
2022-11-05T01:55:03.972Z,37.80
2022-11-05T01:57:32.544Z,44.05
2022-11-05T02:00:00.830Z,46.40
2022-11-05T02:02:29.279Z,50.38
2022-11-05T02:05:00.990Z,42.92
2022-11-05T02:07:29.412Z,47.83
2022-11-05T02:10:06.786Z,52.30
2022-11-05T02:12:34.486Z,55.60
2022-11-05T02:15:01.103Z,53.65
2022-11-05T02:17:39.528Z,54.22
2022-11-05T02:20:31.167Z,59.40
2022-11-05T02:23:22.688Z,55.72
2022-11-05T02:26:07.999Z,56.25
2022-11-05T02:29:08.168Z,68.90
2022-11-05T02:31:56.395Z,60.20
2022-11-05T02:34:47.932Z,57.70
2022-11-05T02:37:40.619Z,54.20
2022-11-05T02:40:27.127Z,62.50
2022-11-05T02:43:03.607Z,58.47
2022-11-05T02:45:45.275Z,65.70
2022-11-05T02:48:36.238Z,63.55
2022-11-05T02:51:15.892Z,65.50
2022-11-05T02:53:54.071Z,66.55
2022-11-05T02:56:26.720Z,64.72
2022-11-05T02:58:53.331Z,67.35
2022-11-05T03:01:20.126Z,63.65
2022-11-05T03:03:55.177Z,68.55
2022-11-05T03:06:44.011Z,66.78
2022-11-05T03:09:35.317Z,65.05
2022-11-05T03:12:17.487Z,70.57
2022-11-05T03:14:53.427Z,61.45
2022-11-05T03:17:56.036Z,58.75
2022-11-05T03:21:00.154Z,59.28
2022-11-05T03:23:52.891Z,56.97
2022-11-05T03:26:22.578Z,57.95
2022-11-05T03:28:55.844Z,67.90
2022-11-05T03:31:24.507Z,61.80
2022-11-05T03:33:53.131Z,75.03
2022-11-05T03:36:41.722Z,69.53
2022-11-05T03:39:15.572Z,71.40
2022-11-05T03:41:44.931Z,71.35
2022-11-05T03:44:13.825Z,80.43
2022-11-05T03:46:49.219Z,80.03
2022-11-05T03:49:21.327Z,80.25
2022-11-05T03:52:00.286Z,71.07
2022-11-05T03:54:27.472Z,75.55
2022-11-05T03:57:16.173Z,63.30
2022-11-05T03:59:45.421Z,65.88
2022-11-05T04:02:16.899Z,75.28
2022-11-05T04:04:43.922Z,81.43
2022-11-05T04:07:30.227Z,87.07
2022-11-05T04:10:15.588Z,92.22
2022-11-05T04:13:01.177Z,101.80
2022-11-05T04:15:29.654Z,97.30
2022-11-05T04:17:58.831Z,77.28
2022-11-05T04:20:45.145Z,91.57
2022-11-05T04:23:30.532Z,76.30
2022-11-05T04:25:57.144Z,72.75
2022-11-05T04:28:43.752Z,90.45
2022-11-05T04:31:10.372Z,68.33
2022-11-05T04:33:36.987Z,80.75
2022-11-05T04:36:03.824Z,78.20
2022-11-05T04:38:30.533Z,92.53
2022-11-05T04:41:12.984Z,94.65
2022-11-05T04:43:39.736Z,94.40
2022-11-05T04:46:06.425Z,99.32
2022-11-05T04:48:33.088Z,83.05
2022-11-05T04:50:59.812Z,87.65
2022-11-05T04:53:26.415Z,94.57
2022-11-05T04:55:53.092Z,84.30
2022-11-05T04:58:19.704Z,95.05
2022-11-05T05:00:46.378Z,90.78
2022-11-05T05:03:13.383Z,93.63
2022-11-05T05:05:40.227Z,86.28
2022-11-05T05:08:06.865Z,98.28
2022-11-05T05:10:33.588Z,88.85
2022-11-05T05:13:00.209Z,81.57
2022-11-05T05:15:26.836Z,79.97
2022-11-05T05:17:53.675Z,84.85
2022-11-05T05:20:39.070Z,85.93
2022-11-05T05:23:05.800Z,85.03
2022-11-05T05:25:32.439Z,93.90
2022-11-05T05:27:59.087Z,101.82
2022-11-05T05:30:25.979Z,106.30
2022-11-05T05:32:52.604Z,117.43
2022-11-05T05:35:19.242Z,84.55
2022-11-05T05:37:46.032Z,90.80
2022-11-05T05:40:12.747Z,89.43
2022-11-05T05:42:43.055Z,96.85
2022-11-05T05:45:11.472Z,89.25
2022-11-05T05:47:38.550Z,84.50
2022-11-05T05:50:05.615Z,79.13
2022-11-05T05:52:32.233Z,89.97
2022-11-05T05:54:58.875Z,95.38
2022-11-05T05:57:25.546Z,87.35
2022-11-05T05:59:52.172Z,86.78
2022-11-05T06:02:18.904Z,85.43
2022-11-05T06:04:45.615Z,85.93
2022-11-05T06:07:12.239Z,154.13
2022-11-05T06:09:38.943Z,121.78
2022-11-05T06:12:05.842Z,67.32
2022-11-05T06:14:32.488Z,82.85
2022-11-05T06:16:59.100Z,97.07
2022-11-05T06:19:25.769Z,89.22
2022-11-05T06:21:52.407Z,82.45
2022-11-05T06:24:19.053Z,74.35
2022-11-05T06:26:45.804Z,78.35
2022-11-05T06:29:12.444Z,78.30
2022-11-05T06:31:39.116Z,72.65
2022-11-05T06:34:05.783Z,78.90
2022-11-05T06:36:32.471Z,63.38
2022-11-05T06:38:59.137Z,72.20
2022-11-05T06:41:25.856Z,81.15
2022-11-05T06:43:52.500Z,69.75
2022-11-05T06:46:19.664Z,72.18
2022-11-05T06:48:47.388Z,70.18
2022-11-05T06:51:14.019Z,57.88
2022-11-05T06:53:40.682Z,57.00
2022-11-05T06:56:08.065Z,60.22
2022-11-05T06:58:34.737Z,58.58
2022-11-05T07:01:03.422Z,50.58
2022-11-05T07:03:30.690Z,55.03
2022-11-05T07:05:59.791Z,43.90
2022-11-05T07:08:30.251Z,44.88
2022-11-05T07:10:56.943Z,46.17
2022-11-05T07:13:23.557Z,52.83
2022-11-05T07:15:50.198Z,45.15
2022-11-05T07:18:16.862Z,42.50
2022-11-05T07:20:43.560Z,40.90
2022-11-05T07:23:13.206Z,36.33
2022-11-05T07:25:41.685Z,36.22
2022-11-05T07:28:09.471Z,41.63
2022-11-05T07:30:36.987Z,36.55
2022-11-05T07:33:04.346Z,33.70
2022-11-05T07:35:31.199Z,28.17
2022-11-05T07:37:58.116Z,29.00
2022-11-05T07:40:26.785Z,21.70
2022-11-05T07:43:01.277Z,28.48
2022-11-05T07:45:30.351Z,22.35
2022-11-05T07:48:01.925Z,30.48
2022-11-05T07:50:31.394Z,26.40
2022-11-05T07:53:14.056Z,26.17
2022-11-05T07:55:45.868Z,27.90
2022-11-05T07:58:12.526Z,21.95
2022-11-05T08:00:39.394Z,18.27
2022-11-05T08:03:10.405Z,18.83
2022-11-05T08:05:39.626Z,20.95
2022-11-05T08:08:08.856Z,19.60
2022-11-05T08:10:36.791Z,14.77
2022-11-05T08:13:04.379Z,19.02
2022-11-05T08:15:31.844Z,21.20
2022-11-05T08:18:03.661Z,20.02
2022-11-05T08:20:30.961Z,23.88
2022-11-05T08:22:57.986Z,15.15
2022-11-05T08:25:24.836Z,20.13
2022-11-05T08:27:59.908Z,15.48
2022-11-05T08:30:26.589Z,19.58
2022-11-05T08:32:58.198Z,21.58
2022-11-05T08:35:25.808Z,19.33
2022-11-05T08:37:59.140Z,16.88
2022-11-05T08:40:26.416Z,12.60
2022-11-05T08:42:53.348Z,17.42
2022-11-05T08:45:20.025Z,20.08
2022-11-05T08:47:46.633Z,17.10
2022-11-05T08:50:13.328Z,19.05
2022-11-05T08:52:40.824Z,17.38
2022-11-05T08:55:08.046Z,14.50
2022-11-05T08:57:34.759Z,13.68
2022-11-05T09:00:01.389Z,15.20
2022-11-05T09:02:28.206Z,14.95
2022-11-05T09:04:54.904Z,14.55
2022-11-05T09:07:22.839Z,20.67
2022-11-05T09:09:49.562Z,18.27
2022-11-05T09:12:16.329Z,13.27
2022-11-05T09:14:43.010Z,16.65
2022-11-05T09:17:18.726Z,17.23
2022-11-05T09:19:45.785Z,16.13
2022-11-05T09:22:12.955Z,21.10
2022-11-05T09:24:40.675Z,19.38
2022-11-05T09:27:13.315Z,15.52
2022-11-05T09:29:40.493Z,17.58
2022-11-05T09:32:07.686Z,18.05
2022-11-05T09:34:34.969Z,14.70
2022-11-05T09:37:02.068Z,18.58
2022-11-05T09:39:28.793Z,15.13
2022-11-05T09:42:02.464Z,18.42
2022-11-05T09:45:01.757Z,17.58
2022-11-05T09:47:44.157Z,17.25
2022-11-05T09:50:22.475Z,11.23
2022-11-05T09:52:49.346Z,14.32
2022-11-05T09:55:23.364Z,14.93
2022-11-05T09:57:57.102Z,14.30
2022-11-05T10:00:23.897Z,15.65
2022-11-05T10:03:02.946Z,11.93
2022-11-05T10:05:32.519Z,18.08
2022-11-05T10:08:13.467Z,16.90
2022-11-05T10:10:46.521Z,15.70
2022-11-05T10:13:50.523Z,15.88
2022-11-05T10:16:40.989Z,18.13
2022-11-05T10:19:22.067Z,10.45
2022-11-05T10:24:35.904Z,18.13
2022-11-05T10:27:03.906Z,14.80
2022-11-05T10:29:34.327Z,13.25
2022-11-05T10:32:05.553Z,13.68
2022-11-05T10:34:36.032Z,15.60
2022-11-05T10:37:03.617Z,14.98
2022-11-05T10:39:32.435Z,18.55
2022-11-05T10:42:35.950Z,20.08
2022-11-05T10:45:30.478Z,18.42
2022-11-05T10:48:24.880Z,14.65
2022-11-05T10:50:51.700Z,16.63
2022-11-05T10:53:23.309Z,17.90
2022-11-05T10:55:52.019Z,21.40
2022-11-05T10:58:28.842Z,14.02
2022-11-05T11:06:27.237Z,18.55
2022-11-05T11:09:01.853Z,15.73
2022-11-05T11:11:31.347Z,18.08
2022-11-05T11:13:57.957Z,14.75
2022-11-05T11:16:27.490Z,13.68
2022-11-05T11:18:56.903Z,16.98
2022-11-05T11:21:24.362Z,15.88
2022-11-05T11:23:58.369Z,18.17
2022-11-05T11:26:28.668Z,12.77
2022-11-05T11:29:15.758Z,13.77
2022-11-05T11:31:42.499Z,15.05
2022-11-05T11:34:25.135Z,18.25
2022-11-05T11:36:56.104Z,12.60
2022-11-05T11:39:27.567Z,15.25
2022-11-05T11:42:05.587Z,14.60
2022-11-05T11:44:39.803Z,14.00
2022-11-05T11:47:14.405Z,14.40
2022-11-05T11:49:52.804Z,19.08
2022-11-05T11:52:34.740Z,12.65
2022-11-05T11:55:13.525Z,17.83
2022-11-05T11:57:45.918Z,14.93
2022-11-05T12:00:13.314Z,15.40
2022-11-05T12:02:49.249Z,14.07
2022-11-05T12:05:31.383Z,16.13
2022-11-05T12:08:03.893Z,16.42
2022-11-05T12:10:36.452Z,15.77
2022-11-05T12:13:21.543Z,13.10
2022-11-05T12:15:57.951Z,12.23
2022-11-05T12:19:05.154Z,13.50
2022-11-05T12:21:57.790Z,16.95
2022-11-05T12:24:47.884Z,15.85
2022-11-05T12:27:58.987Z,16.13
2022-11-05T12:30:28.012Z,14.05
2022-11-05T12:33:32.280Z,12.88
2022-11-05T12:36:22.707Z,10.85
2022-11-05T12:39:27.294Z,12.73
2022-11-05T12:42:10.065Z,12.50
2022-11-05T12:44:58.328Z,11.10
2022-11-05T12:47:36.948Z,11.85
2022-11-05T12:50:03.528Z,13.02
2022-11-05T12:53:10.153Z,8.65
2022-11-05T12:55:44.072Z,13.90
2022-11-05T13:01:03.385Z,11.13
2022-11-05T13:03:45.880Z,13.68
2022-11-05T13:06:15.855Z,12.43
2022-11-05T13:09:06.761Z,12.55
2022-11-05T13:11:42.099Z,14.23
2022-11-05T13:14:19.693Z,15.50
2022-11-05T13:17:01.173Z,9.63
2022-11-05T13:19:35.960Z,11.88
2022-11-05T13:22:38.751Z,11.65
2022-11-05T13:25:19.977Z,14.57
2022-11-05T13:28:24.621Z,12.82
2022-11-05T13:30:54.888Z,13.68
2022-11-05T13:33:36.156Z,12.27
2022-11-05T13:36:44.526Z,9.55
2022-11-05T13:39:50.036Z,14.73
2022-11-05T13:42:49.090Z,9.77
2022-11-05T13:45:49.521Z,12.35
2022-11-05T13:48:31.127Z,13.43
2022-11-05T13:51:33.547Z,11.68
2022-11-05T13:54:24.273Z,12.65
2022-11-05T13:57:18.466Z,11.18
2022-11-05T14:00:16.925Z,13.48
2022-11-05T14:02:45.359Z,11.25
2022-11-05T14:05:42.111Z,10.50
2022-11-05T14:08:29.099Z,10.02
2022-11-05T14:11:03.576Z,12.65
2022-11-05T14:13:43.849Z,13.57
2022-11-05T14:16:18.236Z,10.52
2022-11-05T14:18:54.788Z,17.50
2022-11-05T14:21:27.350Z,9.68
2022-11-05T14:23:55.097Z,12.00
2022-11-05T14:26:23.423Z,12.15
2022-11-05T14:29:03.719Z,9.10
2022-11-05T14:34:53.699Z,14.95
2022-11-05T14:37:22.377Z,9.35
2022-11-05T14:39:49.453Z,11.30
2022-11-05T14:42:22.322Z,11.20
2022-11-05T14:45:06.204Z,12.18
2022-11-05T14:47:38.455Z,14.40
2022-11-05T14:50:16.018Z,11.80
2022-11-05T14:52:51.853Z,16.60
2022-11-05T14:55:34.617Z,9.52
2022-11-05T14:58:04.624Z,15.43
2022-11-05T15:00:32.277Z,9.45
2022-11-05T15:03:01.873Z,8.27
2022-11-05T15:05:31.261Z,11.50
2022-11-05T15:07:58.817Z,12.65
2022-11-05T15:10:35.404Z,9.73
2022-11-05T15:13:04.564Z,13.60
2022-11-05T15:15:47.034Z,11.48
2022-11-05T15:18:43.035Z,11.50
2022-11-05T15:21:14.712Z,10.98
2022-11-05T15:23:44.175Z,11.48
2022-11-05T15:26:26.031Z,10.55
2022-11-05T15:28:55.033Z,14.20
2022-11-05T15:31:30.789Z,12.80
2022-11-05T15:34:20.977Z,11.30
2022-11-05T15:36:56.704Z,15.70
2022-11-05T15:39:29.567Z,10.90
2022-11-05T15:41:57.849Z,11.25
2022-11-05T15:44:27.024Z,12.45
2022-11-05T15:47:17.119Z,14.57
2022-11-05T15:49:47.081Z,15.50
2022-11-05T15:52:16.356Z,17.92
